Airports

 

 

Airport Name Latest METAR Visual Conditions
Atlantic City Int. (ACY) KACY 252254Z AUTO 18004KT 10SM CLR 21/14 A2992 RMK AO2 SLP132 T02060139 TSNO VFR
Baltimore International Airport (BWI) KBWI 252254Z 00000KT 10SM BKN250 22/11 A2994 RMK AO2 SLP136 T02220111 VFR
Washington National Airport (DCA) KDCA 252252Z 23006KT 10SM FEW075 BKN250 22/10 A2995 RMK AO2 SLP141 T02220100 $ VFR
Dulles International Airport (IAD) KIAD 252252Z 20004KT 10SM FEW120 BKN250 20/12 A2994 RMK AO2 SLP138 T02000122 VFR
Norfolk International Airport (ORF) KORF 252251Z 00000KT 10SM FEW055 21/13 A2996 RMK AO2 SLP144 T02060133 VFR
Raleigh International Airport (RDU) KRDU 252251Z 00000KT 10SM FEW060 FEW250 22/12 A3000 RMK AO2 SLP156 T02170117 VFR
Richmond International Airport (RIC) KRIC 252254Z 28005KT 10SM FEW060 SCT220 BKN300 22/11 A2996 RMK AO2 SLP151 T02220111 VFR
Roanoke Regional Airport (ROA) KROA 252254Z 29004KT 10SM FEW060 21/11 A3002 RMK AO2 SLP162 T02060106 VFR